Time;durP1;ratioP1;P1;durP2;ratioP2;P2;SDS_P1;SDS_P2;PMS_P1;PMS_P2;Temp;Humidity;BMP_temperature;BMP_pressure;BME280_temperature;BME280_humidity;BME280_pressure;Samples;Min_cycle;Max_cycle;Signal;HPM_P1;HPM_P2
2023/05/29 00:01:31;;;;;;;;;;;10.10;99.90;;;;;;5060543;28;19928;-79
2023/05/29 00:03:57;;;;;;;;;;;10.00;99.90;;;;;;5094403;28;19924;-78
2023/05/29 00:06:23;;;;;;;;;;;10.00;99.90;;;;;;5095749;28;19970;-79
2023/05/29 00:08:49;;;;;;;;;;;10.00;99.90;;;;;;5064254;28;19924;-79
2023/05/29 00:11:14;;;;;;;;;;;10.00;99.90;;;;;;5044670;28;19985;-79
2023/05/29 00:13:40;;;;;;;;;;;10.00;99.90;;;;;;5064143;28;19928;-79
2023/05/29 00:16:06;;;;;;;;;;;10.00;99.90;;;;;;5062812;28;19931;-79
2023/05/29 00:18:31;;;;;;;;;;;10.00;99.90;;;;;;5080772;28;19955;-79
2023/05/29 00:20:57;;;;;;;;;;;9.90;99.90;;;;;;5063538;28;19924;-79
2023/05/29 00:23:23;;;;;;;;;;;9.90;99.90;;;;;;5063610;28;19989;-79
2023/05/29 00:25:48;;;;;;;;;;;9.90;99.90;;;;;;5064314;28;19991;-79
2023/05/29 00:28:14;;;;;;;;;;;9.90;99.90;;;;;;5045723;28;19923;-79
2023/05/29 00:30:39;;;;;;;;;;;9.90;99.90;;;;;;5063990;28;19924;-79
2023/05/29 00:33:05;;;;;;;;;;;9.90;99.90;;;;;;5079256;28;19987;-79
2023/05/29 00:35:31;;;;;;;;;;;9.80;99.90;;;;;;5064018;28;19928;-78
2023/05/29 00:37:57;;;;;;;;;;;9.80;99.90;;;;;;5052075;28;19978;-79
2023/05/29 00:40:23;;;;;;;;;;;9.80;99.90;;;;;;5077857;28;19928;-79
2023/05/29 00:42:48;;;;;;;;;;;9.70;99.90;;;;;;5064141;28;19928;-78
2023/05/29 00:45:14;;;;;;;;;;;9.60;99.90;;;;;;5063853;28;20007;-79
2023/05/29 00:47:41;;;;;;;;;;;9.70;99.90;;;;;;5062650;28;19980;-79
2023/05/29 00:50:08;;;;;;;;;;;9.60;99.90;;;;;;5056879;28;19924;-79
2023/05/29 00:52:33;;;;;;;;;;;9.60;99.90;;;;;;5067687;28;19967;-79
2023/05/29 00:55:01;;;;;;;;;;;9.60;99.90;;;;;;5067006;28;19931;-78
2023/05/29 00:57:27;;;;;;;;;;;9.60;99.90;;;;;;5059262;28;19924;-80
2023/05/29 00:59:53;;;;;;;;;;;9.50;99.90;;;;;;5084609;28;19936;-78
2023/05/29 01:02:20;;;;;;;;;;;9.50;99.90;;;;;;5066563;28;20438;-79
2023/05/29 01:04:45;;;;;;;;;;;9.50;99.90;;;;;;5067688;28;19924;-79
2023/05/29 01:07:12;;;;;;;;;;;9.50;99.90;;;;;;5065674;28;20328;-79
2023/05/29 01:09:38;;;;;;;;;;;9.40;99.90;;;;;;5066904;28;19924;-79
2023/05/29 01:12:08;;;;;;;;;;;9.40;99.90;;;;;;5052226;28;19978;-79
2023/05/29 01:14:33;;;;;;;;;;;9.40;99.90;;;;;;5062347;28;19955;-80
2023/05/29 01:17:03;;;;;;;;;;;9.40;99.90;;;;;;5067237;28;19924;-79
2023/05/29 01:19:48;;;;;;;;;;;9.30;99.90;;;;;;5065632;28;19955;-79
2023/05/29 01:22:36;;;;;;;;;;;9.30;99.90;;;;;;5083912;28;19991;-79
2023/05/29 01:25:16;;;;;;;;;;;9.20;99.90;;;;;;5029432;28;19924;-79
2023/05/29 01:27:44;;;;;;;;;;;9.20;99.90;;;;;;5066000;28;20194;-80
2023/05/29 01:30:11;;;;;;;;;;;9.20;99.90;;;;;;5062053;28;19939;-79
2023/05/29 01:32:37;;;;;;;;;;;9.20;99.90;;;;;;5072423;28;19931;-79
2023/05/29 01:35:02;;;;;;;;;;;9.20;99.90;;;;;;5050440;28;19988;-79
2023/05/29 01:37:28;;;;;;;;;;;9.20;99.90;;;;;;5050434;28;19975;-79
2023/05/29 01:39:54;;;;;;;;;;;9.20;99.90;;;;;;5074018;28;19983;-79
2023/05/29 01:42:20;;;;;;;;;;;9.20;99.90;;;;;;5062822;28;19965;-79
2023/05/29 01:44:46;;;;;;;;;;;9.20;99.90;;;;;;5050747;28;19959;-79
2023/05/29 01:47:12;;;;;;;;;;;9.20;99.90;;;;;;5078234;28;19924;-79
2023/05/29 01:49:39;;;;;;;;;;;9.20;99.90;;;;;;5065270;28;20473;-80
2023/05/29 01:52:05;;;;;;;;;;;9.10;99.90;;;;;;5068603;28;20363;-79
2023/05/29 01:54:30;;;;;;;;;;;9.20;99.90;;;;;;5085285;28;19924;-79
2023/05/29 01:56:56;;;;;;;;;;;9.20;99.90;;;;;;5068570;28;19924;-80
2023/05/29 01:59:22;;;;;;;;;;;9.10;99.90;;;;;;5085689;28;19923;-79
2023/05/29 02:01:48;;;;;;;;;;;9.10;99.90;;;;;;5102019;28;19923;-79
2023/05/29 02:04:13;;;;;;;;;;;9.10;99.90;;;;;;5073163;28;19935;-79
2023/05/29 02:06:39;;;;;;;;;;;9.10;99.90;;;;;;5101910;28;19924;-79
2023/05/29 02:09:06;;;;;;;;;;;9.10;99.90;;;;;;5085876;28;20287;-79
2023/05/29 02:11:31;;;;;;;;;;;9.10;99.90;;;;;;5084326;28;20015;-79
2023/05/29 02:13:57;;;;;;;;;;;9.10;99.90;;;;;;5088584;28;19931;-79
2023/05/29 02:16:22;;;;;;;;;;;9.00;99.90;;;;;;5068838;28;19968;-79
2023/05/29 02:18:48;;;;;;;;;;;9.10;99.90;;;;;;5068995;28;20290;-79
2023/05/29 02:21:13;;;;;;;;;;;9.00;99.90;;;;;;5069310;28;19927;-79
2023/05/29 02:23:39;;;;;;;;;;;9.10;99.90;;;;;;5101929;28;19923;-78
2023/05/29 02:26:05;;;;;;;;;;;9.00;99.90;;;;;;5085931;28;20327;-79
2023/05/29 02:28:30;;;;;;;;;;;9.00;99.90;;;;;;5084326;28;19924;-79
2023/05/29 02:30:56;;;;;;;;;;;9.00;99.90;;;;;;5071889;28;19931;-79
2023/05/29 02:33:21;;;;;;;;;;;9.00;99.90;;;;;;5068047;28;19924;-79
2023/05/29 02:35:47;;;;;;;;;;;8.90;99.90;;;;;;5068755;28;19931;-79
2023/05/29 02:38:13;;;;;;;;;;;8.90;99.90;;;;;;5054598;28;19928;-79
2023/05/29 02:40:39;;;;;;;;;;;8.90;99.90;;;;;;5084416;28;19935;-79
2023/05/29 02:43:05;;;;;;;;;;;8.90;99.90;;;;;;5069077;28;19924;-79
2023/05/29 02:45:30;;;;;;;;;;;8.80;99.90;;;;;;5084114;28;19959;-79
2023/05/29 02:47:56;;;;;;;;;;;8.80;99.90;;;;;;5102758;28;19966;-79
2023/05/29 02:50:21;;;;;;;;;;;8.80;99.90;;;;;;5084403;28;19928;-79
2023/05/29 02:52:47;;;;;;;;;;;8.70;99.90;;;;;;5068752;28;20379;-79
2023/05/29 02:55:13;;;;;;;;;;;8.70;99.90;;;;;;5061831;28;19988;-79
2023/05/29 02:57:38;;;;;;;;;;;8.70;99.90;;;;;;5059440;28;19924;-79
2023/05/29 03:00:07;;;;;;;;;;;8.70;99.90;;;;;;5085162;28;19955;-79
2023/05/29 03:02:34;;;;;;;;;;;8.70;99.90;;;;;;5084590;28;20005;-79
2023/05/29 03:05:00;;;;;;;;;;;8.70;99.90;;;;;;5084399;28;19924;-79
2023/05/29 03:07:26;;;;;;;;;;;8.60;99.90;;;;;;5070633;28;20294;-79
2023/05/29 03:09:52;;;;;;;;;;;8.60;99.90;;;;;;5067672;28;19924;-79
2023/05/29 03:12:18;;;;;;;;;;;8.70;99.90;;;;;;5084997;28;20295;-78
2023/05/29 03:14:44;;;;;;;;;;;8.70;99.90;;;;;;5067802;28;19931;-79
2023/05/29 03:17:10;;;;;;;;;;;8.60;99.90;;;;;;5085013;28;19955;-78
2023/05/29 03:19:36;;;;;;;;;;;8.60;99.90;;;;;;5083536;28;19966;-79
2023/05/29 03:22:02;;;;;;;;;;;8.60;99.90;;;;;;5085154;28;20012;-79
2023/05/29 03:24:28;;;;;;;;;;;8.60;99.90;;;;;;5076111;28;20376;-79
2023/05/29 03:26:53;;;;;;;;;;;8.60;99.90;;;;;;5064850;28;19991;-79
2023/05/29 03:29:19;;;;;;;;;;;8.60;99.90;;;;;;5046072;28;19924;-79
2023/05/29 03:31:44;;;;;;;;;;;8.60;99.90;;;;;;5071899;28;19940;-79
2023/05/29 03:34:10;;;;;;;;;;;8.60;99.90;;;;;;5065914;28;19938;-79
2023/05/29 03:36:39;;;;;;;;;;;8.60;99.90;;;;;;5083413;28;19928;-79
2023/05/29 03:39:04;;;;;;;;;;;8.60;99.90;;;;;;5066745;28;19934;-79
2023/05/29 03:41:30;;;;;;;;;;;8.60;99.90;;;;;;5070508;28;20010;-79
2023/05/29 03:43:55;;;;;;;;;;;8.60;99.90;;;;;;5071262;28;19935;-79
2023/05/29 03:46:21;;;;;;;;;;;8.60;99.90;;;;;;5083644;28;19924;-79
2023/05/29 03:48:47;;;;;;;;;;;8.60;99.90;;;;;;5084452;28;19924;-79
2023/05/29 03:51:12;;;;;;;;;;;8.60;99.90;;;;;;5081066;28;19935;-79
2023/05/29 03:53:38;;;;;;;;;;;8.60;99.90;;;;;;5072399;28;19987;-79
2023/05/29 03:56:03;;;;;;;;;;;8.60;99.90;;;;;;5084468;28;19938;-79
2023/05/29 03:58:29;;;;;;;;;;;8.60;99.90;;;;;;5082996;28;19923;-80
2023/05/29 04:00:55;;;;;;;;;;;8.60;99.90;;;;;;5067802;28;19928;-79
2023/05/29 04:03:21;;;;;;;;;;;8.60;99.90;;;;;;5083229;28;19924;-79
2023/05/29 04:05:47;;;;;;;;;;;8.60;99.90;;;;;;5100793;28;19938;-79
2023/05/29 04:08:13;;;;;;;;;;;8.60;99.90;;;;;;5084043;28;20121;-78
2023/05/29 04:10:39;;;;;;;;;;;8.60;99.90;;;;;;5065880;28;19923;-79
2023/05/29 04:13:04;;;;;;;;;;;8.60;99.90;;;;;;5067901;28;19930;-79
2023/05/29 04:15:30;;;;;;;;;;;8.70;99.90;;;;;;5065985;28;19923;-79
2023/05/29 04:17:55;;;;;;;;;;;8.70;99.90;;;;;;5084614;28;19928;-79
2023/05/29 04:20:21;;;;;;;;;;;8.70;99.90;;;;;;5084348;28;19987;-79
2023/05/29 04:22:47;;;;;;;;;;;8.70;99.90;;;;;;5088293;28;19953;-79
2023/05/29 04:25:12;;;;;;;;;;;8.80;99.90;;;;;;5088181;28;19923;-79
2023/05/29 04:27:38;;;;;;;;;;;8.80;99.90;;;;;;5070451;28;20020;-79
2023/05/29 04:30:07;;;;;;;;;;;8.80;99.90;;;;;;5093982;28;19938;-79
2023/05/29 04:32:33;;;;;;;;;;;8.90;99.90;;;;;;5084259;28;19927;-79
2023/05/29 04:35:02;;;;;;;;;;;8.90;99.90;;;;;;5071467;28;19931;-79
2023/05/29 04:37:37;;;;;;;;;;;8.90;99.90;;;;;;5086567;28;20024;-79
2023/05/29 04:40:10;;;;;;;;;;;9.00;99.90;;;;;;5077464;28;20019;-79
2023/05/29 04:42:36;;;;;;;;;;;9.00;99.90;;;;;;5070697;28;19928;-79
2023/05/29 04:45:02;;;;;;;;;;;9.10;99.90;;;;;;5086656;28;20430;-79
2023/05/29 04:47:28;;;;;;;;;;;9.10;99.90;;;;;;5071278;28;19930;-79
2023/05/29 04:49:54;;;;;;;;;;;9.20;99.90;;;;;;5069533;28;19932;-79
2023/05/29 04:52:21;;;;;;;;;;;9.30;99.90;;;;;;5087833;28;19928;-79
2023/05/29 04:54:46;;;;;;;;;;;9.40;99.90;;;;;;5073005;28;19923;-79
2023/05/29 04:57:12;;;;;;;;;;;9.60;99.90;;;;;;5087157;28;19939;-79
2023/05/29 04:59:37;;;;;;;;;;;9.80;99.90;;;;;;5087544;28;19935;-79
2023/05/29 05:02:04;;;;;;;;;;;9.90;99.90;;;;;;5069562;28;19931;-79
2023/05/29 05:04:30;;;;;;;;;;;10.00;99.90;;;;;;5087979;28;19923;-79
2023/05/29 05:06:55;;;;;;;;;;;10.20;99.90;;;;;;5068706;28;19931;-79
2023/05/29 05:09:21;;;;;;;;;;;10.40;99.90;;;;;;5104738;28;19924;-80
2023/05/29 05:11:46;;;;;;;;;;;10.80;99.90;;;;;;5069009;28;19924;-79
2023/05/29 05:14:12;;;;;;;;;;;11.20;99.90;;;;;;5070563;28;19979;-79
2023/05/29 05:16:37;;;;;;;;;;;11.60;99.90;;;;;;5057413;28;19928;-79
2023/05/29 05:19:03;;;;;;;;;;;12.00;99.90;;;;;;5113983;28;19947;-79
2023/05/29 05:21:31;;;;;;;;;;;12.40;99.90;;;;;;5112142;28;19930;-79
2023/05/29 05:23:57;;;;;;;;;;;12.80;99.90;;;;;;5069100;28;19961;-80
2023/05/29 05:26:22;;;;;;;;;;;13.10;99.90;;;;;;5070757;28;19946;-80
2023/05/29 05:28:48;;;;;;;;;;;13.30;99.90;;;;;;5071474;28;19931;-80
2023/05/29 05:31:13;;;;;;;;;;;13.50;99.90;;;;;;5086253;28;19934;-80
2023/05/29 05:33:39;;;;;;;;;;;13.70;99.90;;;;;;5072848;28;19924;-79
2023/05/29 05:36:06;;;;;;;;;;;13.80;99.90;;;;;;5101503;28;20015;-79
2023/05/29 05:38:32;;;;;;;;;;;13.90;99.90;;;;;;5086900;28;19931;-79
2023/05/29 05:40:57;;;;;;;;;;;14.10;99.90;;;;;;5084805;28;19924;-80
2023/05/29 05:43:23;;;;;;;;;;;14.10;99.90;;;;;;5086790;28;19934;-79
2023/05/29 05:45:48;;;;;;;;;;;14.20;99.90;;;;;;5085145;28;19924;-79
2023/05/29 05:48:14;;;;;;;;;;;14.40;99.90;;;;;;5079745;28;20004;-79
2023/05/29 05:50:40;;;;;;;;;;;14.50;99.90;;;;;;5096020;28;19983;-79
2023/05/29 05:53:06;;;;;;;;;;;14.60;99.90;;;;;;5069011;28;19931;-80
2023/05/29 05:55:31;;;;;;;;;;;14.70;99.90;;;;;;5070021;28;19928;-79
2023/05/29 05:57:57;;;;;;;;;;;14.80;99.90;;;;;;5065568;28;19939;-80
2023/05/29 06:00:23;;;;;;;;;;;14.90;99.90;;;;;;5092107;28;19987;-79
2023/05/29 06:02:49;;;;;;;;;;;15.10;99.90;;;;;;5068250;28;19934;-79
2023/05/29 06:05:14;;;;;;;;;;;15.20;99.90;;;;;;5066305;28;19924;-79
2023/05/29 06:07:40;;;;;;;;;;;15.40;99.90;;;;;;5074337;28;19930;-80
2023/05/29 06:10:06;;;;;;;;;;;15.60;99.90;;;;;;5085268;28;19923;-80
2023/05/29 06:12:32;;;;;;;;;;;15.60;99.90;;;;;;5086121;28;19927;-80
2023/05/29 06:14:58;;;;;;;;;;;15.70;99.90;;;;;;5084971;28;19938;-79
2023/05/29 06:17:24;;;;;;;;;;;15.80;99.90;;;;;;5069272;28;19928;-80
2023/05/29 06:19:50;;;;;;;;;;;16.00;99.90;;;;;;5084545;28;19924;-79
2023/05/29 06:22:16;;;;;;;;;;;16.10;99.90;;;;;;5069044;28;19924;-80
2023/05/29 06:24:41;;;;;;;;;;;16.10;99.90;;;;;;5068179;28;19925;-80
2023/05/29 06:27:07;;;;;;;;;;;16.20;99.90;;;;;;5068638;28;19935;-80
2023/05/29 06:29:33;;;;;;;;;;;16.60;99.90;;;;;;5069235;28;20019;-80
2023/05/29 06:31:59;;;;;;;;;;;16.80;99.90;;;;;;5068390;28;19924;-80
2023/05/29 06:34:25;;;;;;;;;;;16.90;99.90;;;;;;5085842;28;19934;-79
2023/05/29 06:36:50;;;;;;;;;;;16.90;98.90;;;;;;5067370;28;19924;-80
2023/05/29 06:39:17;;;;;;;;;;;17.00;99.20;;;;;;5086117;28;19924;-80
2023/05/29 06:41:43;;;;;;;;;;;17.00;99.00;;;;;;5067828;28;19935;-80
2023/05/29 06:44:09;;;;;;;;;;;17.00;95.60;;;;;;5084499;28;19928;-80
2023/05/29 06:46:34;;;;;;;;;;;16.70;95.30;;;;;;5068582;28;19962;-80
2023/05/29 06:49:00;;;;;;;;;;;16.20;97.20;;;;;;5101314;28;19924;-80
2023/05/29 06:51:26;;;;;;;;;;;15.80;96.50;;;;;;5068860;28;19935;-79
2023/05/29 06:53:51;;;;;;;;;;;15.50;98.40;;;;;;5067314;28;19935;-80
2023/05/29 06:56:17;;;;;;;;;;;15.30;98.20;;;;;;5054585;28;19934;-80
2023/05/29 06:58:42;;;;;;;;;;;15.30;97.40;;;;;;5084017;28;19936;-80
2023/05/29 07:01:08;;;;;;;;;;;15.60;99.90;;;;;;5068376;28;20631;-80
2023/05/29 07:03:34;;;;;;;;;;;16.00;99.80;;;;;;5067763;28;20369;-80
2023/05/29 07:05:59;;;;;;;;;;;16.40;99.10;;;;;;5084058;28;19949;-80
2023/05/29 07:08:25;;;;;;;;;;;16.70;96.90;;;;;;5068436;28;19927;-79
2023/05/29 07:10:51;;;;;;;;;;;16.90;94.90;;;;;;5083411;28;20022;-80
2023/05/29 07:13:17;;;;;;;;;;;17.00;92.50;;;;;;5101867;28;19934;-80
2023/05/29 07:15:43;;;;;;;;;;;17.10;95.20;;;;;;5083415;28;19923;-80
2023/05/29 07:18:09;;;;;;;;;;;17.30;91.80;;;;;;5068089;28;19965;-80
2023/05/29 07:20:35;;;;;;;;;;;17.40;95.30;;;;;;5067237;28;19924;-80
2023/05/29 07:23:02;;;;;;;;;;;17.60;94.30;;;;;;5083955;28;19924;-79
2023/05/29 07:25:27;;;;;;;;;;;17.70;94.20;;;;;;5101683;28;20236;-80
2023/05/29 07:27:53;;;;;;;;;;;17.50;92.30;;;;;;5083221;28;19934;-80
2023/05/29 07:30:18;;;;;;;;;;;17.40;92.00;;;;;;5084845;28;20007;-80
2023/05/29 07:32:45;;;;;;;;;;;17.20;93.70;;;;;;5083212;28;19980;-80
2023/05/29 07:35:10;;;;;;;;;;;17.10;93.90;;;;;;5084434;28;19984;-81
2023/05/29 07:37:36;;;;;;;;;;;17.10;93.10;;;;;;5080341;28;19924;-80
2023/05/29 07:40:05;;;;;;;;;;;17.10;90.40;;;;;;5090151;28;19924;-80
2023/05/29 07:42:32;;;;;;;;;;;17.00;92.50;;;;;;5085101;28;20054;-80
2023/05/29 07:44:57;;;;;;;;;;;17.10;92.90;;;;;;5082881;28;19934;-80
2023/05/29 07:47:23;;;;;;;;;;;17.10;91.90;;;;;;5068023;28;19967;-80
2023/05/29 07:49:48;;;;;;;;;;;17.10;93.10;;;;;;5099772;28;19927;-80
2023/05/29 07:52:14;;;;;;;;;;;17.10;92.10;;;;;;5084434;28;19924;-79
2023/05/29 07:54:40;;;;;;;;;;;17.00;91.80;;;;;;5082712;28;19928;-80
2023/05/29 07:57:09;;;;;;;;;;;17.10;90.20;;;;;;5073914;28;19924;-81
2023/05/29 07:59:35;;;;;;;;;;;17.20;91.40;;;;;;5114079;28;19924;-79
2023/05/29 08:02:03;;;;;;;;;;;17.30;91.00;;;;;;5061800;28;19924;-79
2023/05/29 08:04:28;;;;;;;;;;;17.40;92.00;;;;;;5092004;28;20317;-79
2023/05/29 08:06:54;;;;;;;;;;;17.40;91.40;;;;;;5079798;28;19931;-80
2023/05/29 08:09:20;;;;;;;;;;;17.40;89.90;;;;;;5067290;28;19935;-80
2023/05/29 08:11:46;;;;;;;;;;;17.50;91.50;;;;;;5065855;28;19923;-80
2023/05/29 08:14:12;;;;;;;;;;;17.50;88.10;;;;;;5060406;28;19995;-80
2023/05/29 08:16:37;;;;;;;;;;;17.50;88.40;;;;;;5059946;28;19935;-80
2023/05/29 08:19:03;;;;;;;;;;;17.20;85.70;;;;;;5100046;28;19927;-80
2023/05/29 08:21:30;;;;;;;;;;;17.30;90.30;;;;;;5084167;28;20364;-79
2023/05/29 08:23:55;;;;;;;;;;;17.50;92.40;;;;;;5082697;28;20010;-79
2023/05/29 08:26:21;;;;;;;;;;;17.70;91.00;;;;;;5067503;28;20019;-79
2023/05/29 08:28:47;;;;;;;;;;;17.90;90.10;;;;;;5066289;28;19924;-79
2023/05/29 08:31:12;;;;;;;;;;;18.00;89.10;;;;;;5067227;28;19924;-79
2023/05/29 08:33:38;;;;;;;;;;;18.10;86.70;;;;;;5083852;28;19987;-80
2023/05/29 08:36:03;;;;;;;;;;;18.00;82.80;;;;;;5082939;28;19935;-79
2023/05/29 08:38:29;;;;;;;;;;;18.10;82.30;;;;;;5067652;28;20001;-79
2023/05/29 08:40:56;;;;;;;;;;;18.10;83.40;;;;;;5082311;28;20349;-79
2023/05/29 08:43:22;;;;;;;;;;;18.10;86.40;;;;;;5084481;28;19961;-79
2023/05/29 08:45:51;;;;;;;;;;;18.20;87.40;;;;;;5068296;28;19967;-80
2023/05/29 08:48:18;;;;;;;;;;;18.10;81.10;;;;;;5083491;28;20421;-79
2023/05/29 08:50:48;;;;;;;;;;;18.20;82.20;;;;;;5083834;28;19938;-79
2023/05/29 08:53:14;;;;;;;;;;;18.30;81.90;;;;;;5113788;28;19935;-71
2023/05/29 08:55:39;;;;;;;;;;;18.40;86.70;;;;;;5068620;28;19924;-70
2023/05/29 08:58:06;;;;;;;;;;;18.50;82.90;;;;;;5090115;28;20011;-70
2023/05/29 09:00:35;;;;;;;;;;;18.50;81.00;;;;;;5102866;28;19924;-70
2023/05/29 09:03:01;;;;;;;;;;;18.30;81.10;;;;;;5089517;28;19929;-70
2023/05/29 09:05:27;;;;;;;;;;;18.10;80.40;;;;;;5096165;28;19924;-70
2023/05/29 09:07:53;;;;;;;;;;;18.10;81.00;;;;;;5080160;28;19947;-70
2023/05/29 09:10:19;;;;;;;;;;;18.10;83.20;;;;;;5065607;28;19932;-71
2023/05/29 09:12:48;;;;;;;;;;;18.00;81.00;;;;;;5063811;28;20325;-70
2023/05/29 09:15:18;;;;;;;;;;;18.00;84.20;;;;;;5078303;28;20364;-70
2023/05/29 09:17:44;;;;;;;;;;;17.90;77.70;;;;;;5066508;28;19970;-70
2023/05/29 09:20:17;;;;;;;;;;;17.90;80.00;;;;;;5081260;28;20374;-70
2023/05/29 09:22:52;;;;;;;;;;;17.90;80.50;;;;;;5064638;28;19931;-70
2023/05/29 09:25:21;;;;;;;;;;;17.80;78.40;;;;;;5066868;28;19924;-70
2023/05/29 09:27:46;;;;;;;;;;;17.80;85.10;;;;;;5080929;28;19928;-70
2023/05/29 09:30:30;;;;;;;;;;;17.70;81.10;;;;;;5083548;28;19947;-70
2023/05/29 09:32:55;;;;;;;;;;;17.70;85.00;;;;;;5057724;28;20718;-70
2023/05/29 09:35:21;;;;;;;;;;;17.70;84.40;;;;;;5099037;28;19972;-70
2023/05/29 09:37:46;;;;;;;;;;;17.80;80.20;;;;;;5044529;28;19954;-70
2023/05/29 09:40:13;;;;;;;;;;;17.90;84.50;;;;;;5078179;28;19928;-70
2023/05/29 09:42:39;;;;;;;;;;;18.00;84.90;;;;;;5090081;28;19939;-70
2023/05/29 09:45:04;;;;;;;;;;;18.20;84.40;;;;;;5063673;28;19932;-71
2023/05/29 09:47:33;;;;;;;;;;;18.40;85.80;;;;;;5071036;28;19974;-70
2023/05/29 09:50:00;;;;;;;;;;;18.50;82.90;;;;;;5063343;28;20189;-70
2023/05/29 09:52:30;;;;;;;;;;;18.40;81.00;;;;;;5065813;28;19934;-71
2023/05/29 09:54:56;;;;;;;;;;;18.40;82.80;;;;;;5065953;28;19963;-70
2023/05/29 09:57:23;;;;;;;;;;;18.40;82.40;;;;;;5057544;28;19935;-70
2023/05/29 09:59:51;;;;;;;;;;;18.40;80.70;;;;;;5066536;28;20383;-70
2023/05/29 10:02:18;;;;;;;;;;;18.40;80.70;;;;;;5085385;28;19934;-72
2023/05/29 10:04:44;;;;;;;;;;;18.50;82.40;;;;;;5103283;28;19949;-71
2023/05/29 10:07:12;;;;;;;;;;;18.50;79.50;;;;;;5084619;28;19963;-70
2023/05/29 10:09:41;;;;;;;;;;;18.50;77.00;;;;;;5085918;28;19930;-71
2023/05/29 10:12:07;;;;;;;;;;;18.50;77.40;;;;;;5085584;28;20009;-70
2023/05/29 10:14:33;;;;;;;;;;;18.40;77.80;;;;;;5085459;28;19971;-71
2023/05/29 10:17:01;;;;;;;;;;;18.40;78.00;;;;;;5086130;28;19924;-71
2023/05/29 10:19:29;;;;;;;;;;;18.30;77.60;;;;;;5084371;28;19924;-71
2023/05/29 10:21:55;;;;;;;;;;;18.40;76.60;;;;;;5088798;28;19955;-70
2023/05/29 10:24:21;;;;;;;;;;;18.50;79.00;;;;;;5084710;28;19924;-71
2023/05/29 10:26:48;;;;;;;;;;;18.60;74.60;;;;;;5057182;28;19931;-71
2023/05/29 10:29:40;;;;;;;;;;;18.60;74.10;;;;;;5083677;28;19924;-71
2023/05/29 10:32:06;;;;;;;;;;;18.80;73.70;;;;;;5070172;28;19924;-71
2023/05/29 10:34:38;;;;;;;;;;;18.80;72.40;;;;;;5086076;28;19931;-71
2023/05/29 10:37:08;;;;;;;;;;;18.80;76.60;;;;;;5084250;28;19928;-71
2023/05/29 10:39:34;;;;;;;;;;;18.90;75.00;;;;;;5085816;28;19927;-71
2023/05/29 10:42:00;;;;;;;;;;;19.00;78.50;;;;;;5067830;28;19924;-71
2023/05/29 10:44:28;;;;;;;;;;;19.10;73.00;;;;;;5070947;28;19928;-71
2023/05/29 10:47:01;;;;;;;;;;;19.20;75.50;;;;;;5085915;28;19957;-71
2023/05/29 10:49:26;;;;;;;;;;;19.20;73.80;;;;;;5083711;28;19973;-75
2023/05/29 10:51:52;;;;;;;;;;;19.20;72.00;;;;;;5085792;28;19924;-70
2023/05/29 10:54:25;;;;;;;;;;;19.20;72.70;;;;;;5086400;28;19924;-71
2023/05/29 10:57:01;;;;;;;;;;;19.10;73.80;;;;;;5077098;28;19924;-71
2023/05/29 10:59:27;;;;;;;;;;;19.10;72.10;;;;;;5112996;28;20062;-70
2023/05/29 11:01:54;;;;;;;;;;;19.20;72.20;;;;;;5088320;28;19924;-70
2023/05/29 11:04:26;;;;;;;;;;;19.20;71.40;;;;;;5071906;28;19928;-79
2023/05/29 11:06:52;;;;;;;;;;;19.10;70.00;;;;;;5079281;28;19987;-79
2023/05/29 11:09:31;;;;;;;;;;;18.90;70.10;;;;;;5064526;28;19975;-80
2023/05/29 11:12:14;;;;;;;;;;;18.90;70.20;;;;;;5063580;28;19924;-79
2023/05/29 11:14:47;;;;;;;;;;;18.80;72.60;;;;;;5080009;28;19928;-79
2023/05/29 11:17:31;;;;;;;;;;;18.90;72.60;;;;;;5080826;28;19970;-80
2023/05/29 11:19:57;;;;;;;;;;;18.90;72.50;;;;;;5055595;28;20331;-79
2023/05/29 11:22:26;;;;;;;;;;;19.10;73.10;;;;;;5081145;28;19924;-78
2023/05/29 11:24:53;;;;;;;;;;;19.20;72.00;;;;;;5064072;28;19924;-78
2023/05/29 11:27:18;;;;;;;;;;;19.30;70.30;;;;;;5097580;28;19977;-78
2023/05/29 11:29:45;;;;;;;;;;;19.40;71.10;;;;;;5065181;28;20322;-79
2023/05/29 11:32:13;;;;;;;;;;;19.40;69.20;;;;;;5096371;28;19925;-77
2023/05/29 11:34:41;;;;;;;;;;;19.50;70.90;;;;;;5064840;28;19924;-79
2023/05/29 11:37:07;;;;;;;;;;;19.60;68.30;;;;;;5079831;28;20045;-79
2023/05/29 11:39:36;;;;;;;;;;;19.40;68.40;;;;;;5064141;28;19987;-79
2023/05/29 11:42:02;;;;;;;;;;;19.40;66.10;;;;;;5063740;28;19931;-78
2023/05/29 11:44:28;;;;;;;;;;;19.50;68.90;;;;;;5100893;28;19965;-79
2023/05/29 11:47:03;;;;;;;;;;;19.50;68.50;;;;;;5056584;28;20022;-78
2023/05/29 11:49:30;;;;;;;;;;;19.60;68.10;;;;;;5096946;28;20434;-79
2023/05/29 11:52:17;;;;;;;;;;;19.70;68.90;;;;;;5082644;28;19946;-78
2023/05/29 11:54:46;;;;;;;;;;;19.80;66.20;;;;;;5079867;28;19924;-79
2023/05/29 11:57:19;;;;;;;;;;;19.80;65.80;;;;;;5038453;28;20436;-78
2023/05/29 11:59:45;;;;;;;;;;;19.80;62.80;;;;;;5081437;28;19927;-79
2023/05/29 12:02:11;;;;;;;;;;;19.90;67.10;;;;;;5082646;28;19924;-80
2023/05/29 12:04:37;;;;;;;;;;;19.90;65.50;;;;;;5068222;28;20382;-79
2023/05/29 12:07:16;;;;;;;;;;;20.00;63.60;;;;;;5095979;28;19928;-80
2023/05/29 12:09:41;;;;;;;;;;;19.90;66.10;;;;;;5097699;28;19928;-80
2023/05/29 12:12:07;;;;;;;;;;;19.80;62.90;;;;;;5081177;28;19931;-79
2023/05/29 12:14:33;;;;;;;;;;;19.70;66.20;;;;;;5083373;28;20238;-80
2023/05/29 12:16:58;;;;;;;;;;;19.60;64.70;;;;;;5084347;28;20006;-79
2023/05/29 12:19:24;;;;;;;;;;;19.40;64.50;;;;;;5082786;28;19928;-78
2023/05/29 12:21:50;;;;;;;;;;;19.30;65.70;;;;;;5070850;28;19928;-78
2023/05/29 12:24:17;;;;;;;;;;;19.40;67.00;;;;;;5094065;28;19931;-78
2023/05/29 12:26:43;;;;;;;;;;;19.50;63.70;;;;;;5075747;28;19928;-79
2023/05/29 12:29:09;;;;;;;;;;;19.60;66.30;;;;;;5066896;28;19955;-79
2023/05/29 12:31:35;;;;;;;;;;;19.70;65.30;;;;;;5100101;28;19930;-78
2023/05/29 12:34:21;;;;;;;;;;;19.90;65.30;;;;;;5084104;28;19975;-78
2023/05/29 12:36:47;;;;;;;;;;;19.80;62.50;;;;;;5082215;28;20394;-79
2023/05/29 12:39:12;;;;;;;;;;;19.60;62.00;;;;;;5084087;28;19923;-80
2023/05/29 12:41:39;;;;;;;;;;;19.50;62.60;;;;;;5067783;28;19931;-79
2023/05/29 12:44:05;;;;;;;;;;;19.50;61.30;;;;;;5073536;28;19939;-80
2023/05/29 12:46:42;;;;;;;;;;;19.50;59.40;;;;;;5081459;28;20015;-80
2023/05/29 12:49:21;;;;;;;;;;;19.50;62.90;;;;;;5080870;28;19924;-80
2023/05/29 12:51:46;;;;;;;;;;;19.60;64.10;;;;;;5088173;28;19939;-79
2023/05/29 12:54:13;;;;;;;;;;;19.60;61.80;;;;;;5086555;28;19923;-80
2023/05/29 12:56:40;;;;;;;;;;;19.50;61.10;;;;;;5087768;28;19930;-81
2023/05/29 12:59:07;;;;;;;;;;;19.50;59.50;;;;;;5087214;28;19970;-79
2023/05/29 13:01:32;;;;;;;;;;;19.40;62.50;;;;;;5086679;28;19928;-80
2023/05/29 13:03:58;;;;;;;;;;;19.30;63.00;;;;;;5071368;28;19931;-79
2023/05/29 13:06:23;;;;;;;;;;;19.40;65.50;;;;;;5069659;28;19928;-80
2023/05/29 13:08:49;;;;;;;;;;;19.40;64.70;;;;;;5070661;28;19945;-81
2023/05/29 13:11:15;;;;;;;;;;;19.40;61.60;;;;;;5058725;28;19924;-79
2023/05/29 13:13:40;;;;;;;;;;;19.30;62.80;;;;;;5100804;28;20026;-80
2023/05/29 13:16:06;;;;;;;;;;;19.10;62.60;;;;;;5069897;28;20417;-79
2023/05/29 13:18:32;;;;;;;;;;;19.10;64.40;;;;;;5086956;28;19928;-80
2023/05/29 13:20:58;;;;;;;;;;;19.20;64.80;;;;;;5087428;28;20339;-81
2023/05/29 13:23:24;;;;;;;;;;;19.30;62.40;;;;;;5086236;28;19966;-80
2023/05/29 13:25:50;;;;;;;;;;;19.40;60.40;;;;;;5070776;28;19928;-80
2023/05/29 13:28:16;;;;;;;;;;;19.20;63.20;;;;;;5069121;28;20306;-80
2023/05/29 13:30:41;;;;;;;;;;;19.20;64.60;;;;;;5084597;28;20002;-81
2023/05/29 13:33:07;;;;;;;;;;;19.30;66.30;;;;;;5091341;28;19927;-79
2023/05/29 13:35:32;;;;;;;;;;;19.40;62.60;;;;;;5069587;28;19924;-79
2023/05/29 13:37:58;;;;;;;;;;;19.40;63.70;;;;;;5080446;28;19961;-80
2023/05/29 13:40:24;;;;;;;;;;;19.60;65.00;;;;;;5112161;28;19927;-79
2023/05/29 13:42:49;;;;;;;;;;;19.60;64.30;;;;;;5103692;28;19924;-79
2023/05/29 13:45:15;;;;;;;;;;;19.60;60.30;;;;;;5068279;28;19931;-80
2023/05/29 13:47:40;;;;;;;;;;;19.50;62.00;;;;;;5082265;28;19973;-76
2023/05/29 13:50:06;;;;;;;;;;;19.30;60.40;;;;;;5104369;28;19931;-78
2023/05/29 13:52:32;;;;;;;;;;;19.30;62.10;;;;;;5094508;28;19928;-76
2023/05/29 13:55:00;;;;;;;;;;;19.20;61.30;;;;;;5081647;28;19946;-83
2023/05/29 13:57:25;;;;;;;;;;;19.20;61.20;;;;;;5109053;28;19924;-75
2023/05/29 13:59:51;;;;;;;;;;;19.30;59.90;;;;;;5097122;28;20561;-76
2023/05/29 14:02:16;;;;;;;;;;;19.30;60.20;;;;;;5087303;28;21340;-76
2023/05/29 14:04:43;;;;;;;;;;;19.30;61.30;;;;;;5092713;28;19924;-76
2023/05/29 14:07:09;;;;;;;;;;;19.30;60.70;;;;;;5045186;28;19932;-75
2023/05/29 14:09:34;;;;;;;;;;;19.40;62.90;;;;;;5092798;28;19932;-78
2023/05/29 14:12:00;;;;;;;;;;;19.40;63.30;;;;;;5056091;28;19992;-75
2023/05/29 14:14:26;;;;;;;;;;;19.40;62.40;;;;;;5047625;28;19983;-75
2023/05/29 14:16:52;;;;;;;;;;;19.50;62.10;;;;;;5063782;28;19932;-77
2023/05/29 14:19:17;;;;;;;;;;;19.50;59.00;;;;;;5050202;28;19924;-77